sensor_id;sensor_type;location;lat;lon;timestamp;P1;durP1;ratioP1;P2;durP2;ratioP2
1533;SDS011;760;48.822;9.304;2022-07-18T04:04:37;1.23;;;1.23;;
1533;SDS011;760;48.822;9.304;2022-07-18T04:07:02;1.73;;;1.73;;
1533;SDS011;760;48.822;9.304;2022-07-18T04:09:30;3.47;;;2.23;;
1533;SDS011;760;48.822;9.304;2022-07-18T04:11:55;2.70;;;2.00;;
1533;SDS011;760;48.822;9.304;2022-07-18T04:14:21;1.73;;;1.60;;
1533;SDS011;760;48.822;9.304;2022-07-18T04:16:49;2.00;;;1.90;;
1533;SDS011;760;48.822;9.304;2022-07-18T04:19:15;1.93;;;1.53;;
1533;SDS011;760;48.822;9.304;2022-07-18T04:21:42;1.70;;;1.57;;
1533;SDS011;760;48.822;9.304;2022-07-18T04:24:08;10.40;;;2.00;;
1533;SDS011;760;48.822;9.304;2022-07-18T04:26:34;2.00;;;1.90;;
1533;SDS011;760;48.822;9.304;2022-07-18T04:29:28;1.90;;;1.80;;
1533;SDS011;760;48.822;9.304;2022-07-18T04:31:56;1.93;;;1.83;;
1533;SDS011;760;48.822;9.304;2022-07-18T04:34:22;1.97;;;1.83;;
1533;SDS011;760;48.822;9.304;2022-07-18T04:36:51;3.20;;;2.00;;
1533;SDS011;760;48.822;9.304;2022-07-18T04:39:16;1.80;;;1.70;;
1533;SDS011;760;48.822;9.304;2022-07-18T04:41:42;1.80;;;1.70;;
1533;SDS011;760;48.822;9.304;2022-07-18T04:44:08;1.90;;;1.70;;
1533;SDS011;760;48.822;9.304;2022-07-18T04:46:34;1.33;;;1.33;;
1533;SDS011;760;48.822;9.304;2022-07-18T04:49:00;1.40;;;1.40;;
1533;SDS011;760;48.822;9.304;2022-07-18T04:51:32;1.60;;;1.50;;
1533;SDS011;760;48.822;9.304;2022-07-18T04:54:00;1.80;;;1.70;;
1533;SDS011;760;48.822;9.304;2022-07-18T04:56:26;1.93;;;1.83;;
1533;SDS011;760;48.822;9.304;2022-07-18T04:58:53;2.20;;;2.00;;
1533;SDS011;760;48.822;9.304;2022-07-18T05:01:18;2.50;;;1.63;;
1533;SDS011;760;48.822;9.304;2022-07-18T05:03:50;2.00;;;1.67;;
1533;SDS011;760;48.822;9.304;2022-07-18T05:06:15;1.80;;;1.70;;
1533;SDS011;760;48.822;9.304;2022-07-18T05:08:41;2.10;;;2.00;;
1533;SDS011;760;48.822;9.304;2022-07-18T05:11:24;1.87;;;1.77;;
1533;SDS011;760;48.822;9.304;2022-07-18T05:14:09;1.90;;;1.80;;
1533;SDS011;760;48.822;9.304;2022-07-18T05:16:37;1.60;;;1.50;;
1533;SDS011;760;48.822;9.304;2022-07-18T05:19:03;1.83;;;1.67;;
1533;SDS011;760;48.822;9.304;2022-07-18T05:21:50;1.53;;;1.43;;
1533;SDS011;760;48.822;9.304;2022-07-18T05:24:25;2.53;;;2.33;;
1533;SDS011;760;48.822;9.304;2022-07-18T05:27:06;2.40;;;1.73;;
1533;SDS011;760;48.822;9.304;2022-07-18T05:29:32;1.70;;;1.60;;
1533;SDS011;760;48.822;9.304;2022-07-18T05:32:07;1.30;;;1.30;;
1533;SDS011;760;48.822;9.304;2022-07-18T05:34:39;2.20;;;2.10;;
1533;SDS011;760;48.822;9.304;2022-07-18T05:40:10;3.00;;;2.80;;
1533;SDS011;760;48.822;9.304;2022-07-18T05:42:39;2.30;;;2.20;;
1533;SDS011;760;48.822;9.304;2022-07-18T05:45:05;3.33;;;2.00;;
1533;SDS011;760;48.822;9.304;2022-07-18T05:47:55;2.63;;;2.47;;
1533;SDS011;760;48.822;9.304;2022-07-18T05:50:36;3.60;;;2.10;;
1533;SDS011;760;48.822;9.304;2022-07-18T05:53:01;2.57;;;2.23;;
1533;SDS011;760;48.822;9.304;2022-07-18T05:55:28;2.60;;;2.10;;
1533;SDS011;760;48.822;9.304;2022-07-18T05:58:04;2.37;;;2.17;;
1533;SDS011;760;48.822;9.304;2022-07-18T06:00:50;2.20;;;2.10;;
1533;SDS011;760;48.822;9.304;2022-07-18T06:03:15;1.80;;;1.70;;
1533;SDS011;760;48.822;9.304;2022-07-18T06:05:59;3.07;;;2.87;;
1533;SDS011;760;48.822;9.304;2022-07-18T06:08:37;2.60;;;2.40;;
1533;SDS011;760;48.822;9.304;2022-07-18T06:11:03;2.43;;;2.33;;
1533;SDS011;760;48.822;9.304;2022-07-18T06:13:29;2.10;;;2.00;;
1533;SDS011;760;48.822;9.304;2022-07-18T06:15:55;2.40;;;2.20;;
1533;SDS011;760;48.822;9.304;2022-07-18T06:18:21;5.23;;;2.20;;
1533;SDS011;760;48.822;9.304;2022-07-18T06:20:46;2.13;;;2.03;;
1533;SDS011;760;48.822;9.304;2022-07-18T06:23:12;2.27;;;2.03;;
1533;SDS011;760;48.822;9.304;2022-07-18T06:25:37;2.57;;;2.37;;
1533;SDS011;760;48.822;9.304;2022-07-18T06:28:03;2.90;;;2.60;;
1533;SDS011;760;48.822;9.304;2022-07-18T06:30:29;2.07;;;1.97;;
1533;SDS011;760;48.822;9.304;2022-07-18T06:32:54;2.60;;;2.40;;
1533;SDS011;760;48.822;9.304;2022-07-18T06:35:20;2.37;;;2.17;;
1533;SDS011;760;48.822;9.304;2022-07-18T06:37:46;2.90;;;2.70;;
1533;SDS011;760;48.822;9.304;2022-07-18T06:40:12;3.33;;;2.57;;
1533;SDS011;760;48.822;9.304;2022-07-18T06:42:38;2.60;;;2.50;;
1533;SDS011;760;48.822;9.304;2022-07-18T06:45:04;3.40;;;2.60;;
1533;SDS011;760;48.822;9.304;2022-07-18T06:47:30;2.57;;;2.37;;
1533;SDS011;760;48.822;9.304;2022-07-18T06:49:56;2.37;;;2.27;;
1533;SDS011;760;48.822;9.304;2022-07-18T06:52:22;2.60;;;2.40;;
1533;SDS011;760;48.822;9.304;2022-07-18T06:54:47;2.80;;;2.30;;
1533;SDS011;760;48.822;9.304;2022-07-18T06:57:13;2.20;;;2.10;;
1533;SDS011;760;48.822;9.304;2022-07-18T06:59:38;2.53;;;2.40;;
1533;SDS011;760;48.822;9.304;2022-07-18T07:02:04;2.97;;;2.73;;
1533;SDS011;760;48.822;9.304;2022-07-18T07:04:30;2.53;;;2.43;;
1533;SDS011;760;48.822;9.304;2022-07-18T07:06:56;2.80;;;2.50;;
1533;SDS011;760;48.822;9.304;2022-07-18T07:09:21;2.50;;;2.30;;
1533;SDS011;760;48.822;9.304;2022-07-18T07:11:47;3.43;;;2.40;;
1533;SDS011;760;48.822;9.304;2022-07-18T07:14:13;2.37;;;2.20;;
1533;SDS011;760;48.822;9.304;2022-07-18T07:16:38;3.40;;;3.10;;
1533;SDS011;760;48.822;9.304;2022-07-18T07:19:04;6.33;;;2.40;;
1533;SDS011;760;48.822;9.304;2022-07-18T07:21:29;2.60;;;2.40;;
1533;SDS011;760;48.822;9.304;2022-07-18T07:23:55;3.77;;;2.60;;
1533;SDS011;760;48.822;9.304;2022-07-18T07:26:21;2.70;;;2.50;;
1533;SDS011;760;48.822;9.304;2022-07-18T07:28:46;3.30;;;3.00;;
1533;SDS011;760;48.822;9.304;2022-07-18T07:31:12;2.80;;;2.40;;
1533;SDS011;760;48.822;9.304;2022-07-18T07:33:37;2.80;;;2.60;;
1533;SDS011;760;48.822;9.304;2022-07-18T07:36:04;2.23;;;2.13;;
1533;SDS011;760;48.822;9.304;2022-07-18T07:38:30;2.10;;;2.00;;
1533;SDS011;760;48.822;9.304;2022-07-18T07:40:56;3.13;;;2.87;;
1533;SDS011;760;48.822;9.304;2022-07-18T07:43:22;2.60;;;2.50;;
1533;SDS011;760;48.822;9.304;2022-07-18T07:45:49;4.67;;;2.77;;
1533;SDS011;760;48.822;9.304;2022-07-18T07:48:17;9.03;;;8.13;;
1533;SDS011;760;48.822;9.304;2022-07-18T07:50:43;5.50;;;5.00;;
1533;SDS011;760;48.822;9.304;2022-07-18T07:53:08;3.80;;;3.50;;
1533;SDS011;760;48.822;9.304;2022-07-18T07:55:34;2.53;;;2.43;;
1533;SDS011;760;48.822;9.304;2022-07-18T07:58:00;3.30;;;3.10;;
1533;SDS011;760;48.822;9.304;2022-07-18T08:00:26;3.63;;;3.33;;
1533;SDS011;760;48.822;9.304;2022-07-18T08:05:28;3.90;;;2.77;;
1533;SDS011;760;48.822;9.304;2022-07-18T08:07:55;3.20;;;2.73;;
1533;SDS011;760;48.822;9.304;2022-07-18T08:10:23;3.83;;;3.63;;
1533;SDS011;760;48.822;9.304;2022-07-18T08:12:49;2.63;;;2.53;;
1533;SDS011;760;48.822;9.304;2022-07-18T08:15:15;3.37;;;3.17;;
1533;SDS011;760;48.822;9.304;2022-07-18T08:17:41;3.47;;;3.17;;
1533;SDS011;760;48.822;9.304;2022-07-18T08:20:07;3.07;;;2.87;;
1533;SDS011;760;48.822;9.304;2022-07-18T08:22:33;3.47;;;3.27;;
1533;SDS011;760;48.822;9.304;2022-07-18T08:24:59;3.57;;;3.37;;
1533;SDS011;760;48.822;9.304;2022-07-18T08:27:26;3.40;;;3.10;;
1533;SDS011;760;48.822;9.304;2022-07-18T08:29:51;3.30;;;3.10;;
1533;SDS011;760;48.822;9.304;2022-07-18T08:32:17;3.63;;;3.33;;
1533;SDS011;760;48.822;9.304;2022-07-18T08:34:43;3.40;;;3.20;;
1533;SDS011;760;48.822;9.304;2022-07-18T08:37:08;3.10;;;2.90;;
1533;SDS011;760;48.822;9.304;2022-07-18T08:39:34;3.60;;;3.40;;
1533;SDS011;760;48.822;9.304;2022-07-18T08:42:00;2.83;;;2.73;;
1533;SDS011;760;48.822;9.304;2022-07-18T08:44:29;3.30;;;3.10;;
1533;SDS011;760;48.822;9.304;2022-07-18T08:46:56;2.80;;;2.70;;
1533;SDS011;760;48.822;9.304;2022-07-18T08:49:22;3.30;;;3.20;;
1533;SDS011;760;48.822;9.304;2022-07-18T08:51:48;3.30;;;3.10;;
1533;SDS011;760;48.822;9.304;2022-07-18T08:54:15;2.80;;;2.70;;
1533;SDS011;760;48.822;9.304;2022-07-18T08:56:41;2.90;;;2.80;;
1533;SDS011;760;48.822;9.304;2022-07-18T08:59:07;3.40;;;3.10;;
1533;SDS011;760;48.822;9.304;2022-07-18T09:01:32;3.10;;;2.90;;
1533;SDS011;760;48.822;9.304;2022-07-18T09:03:59;3.00;;;2.90;;
1533;SDS011;760;48.822;9.304;2022-07-18T09:06:47;3.43;;;3.23;;
1533;SDS011;760;48.822;9.304;2022-07-18T09:09:15;3.50;;;3.30;;
1533;SDS011;760;48.822;9.304;2022-07-18T09:11:52;4.90;;;3.77;;
1533;SDS011;760;48.822;9.304;2022-07-18T09:14:26;2.60;;;2.50;;
1533;SDS011;760;48.822;9.304;2022-07-18T09:17:26;3.60;;;3.40;;
1533;SDS011;760;48.822;9.304;2022-07-18T09:19:56;3.67;;;3.47;;
1533;SDS011;760;48.822;9.304;2022-07-18T09:22:38;3.20;;;3.10;;
1533;SDS011;760;48.822;9.304;2022-07-18T09:25:17;3.17;;;3.00;;
1533;SDS011;760;48.822;9.304;2022-07-18T09:27:50;3.93;;;3.40;;
1533;SDS011;760;48.822;9.304;2022-07-18T09:30:18;3.33;;;3.23;;
1533;SDS011;760;48.822;9.304;2022-07-18T09:32:46;3.57;;;3.37;;
1533;SDS011;760;48.822;9.304;2022-07-18T09:35:18;3.07;;;2.97;;
1533;SDS011;760;48.822;9.304;2022-07-18T09:37:59;2.70;;;2.60;;
1533;SDS011;760;48.822;9.304;2022-07-18T09:40:34;2.97;;;2.77;;
1533;SDS011;760;48.822;9.304;2022-07-18T09:43:02;2.53;;;2.43;;
1533;SDS011;760;48.822;9.304;2022-07-18T09:48:03;3.30;;;3.13;;
1533;SDS011;760;48.822;9.304;2022-07-18T09:50:31;3.30;;;3.20;;
1533;SDS011;760;48.822;9.304;2022-07-18T09:53:12;3.37;;;3.27;;
1533;SDS011;760;48.822;9.304;2022-07-18T09:55:47;3.53;;;3.43;;
1533;SDS011;760;48.822;9.304;2022-07-18T09:58:18;3.37;;;3.10;;
1533;SDS011;760;48.822;9.304;2022-07-18T10:00:46;2.80;;;2.70;;
1533;SDS011;760;48.822;9.304;2022-07-18T10:03:12;3.00;;;2.90;;
1533;SDS011;760;48.822;9.304;2022-07-18T10:05:39;3.53;;;3.33;;
1533;SDS011;760;48.822;9.304;2022-07-18T10:08:10;3.20;;;3.10;;
1533;SDS011;760;48.822;9.304;2022-07-18T10:10:44;3.63;;;3.42;;
1533;SDS011;760;48.822;9.304;2022-07-18T10:13:11;3.17;;;3.07;;
1533;SDS011;760;48.822;9.304;2022-07-18T10:15:39;3.17;;;3.07;;
1533;SDS011;760;48.822;9.304;2022-07-18T10:18:07;2.80;;;2.70;;
1533;SDS011;760;48.822;9.304;2022-07-18T10:23:34;2.63;;;2.53;;
1533;SDS011;760;48.822;9.304;2022-07-18T10:31:20;3.20;;;3.10;;
1533;SDS011;760;48.822;9.304;2022-07-18T10:36:31;2.90;;;2.80;;
1533;SDS011;760;48.822;9.304;2022-07-18T10:39:17;2.60;;;2.50;;
1533;SDS011;760;48.822;9.304;2022-07-18T10:50:05;2.47;;;2.37;;
1533;SDS011;760;48.822;9.304;2022-07-18T11:00:38;20.57;;;4.57;;
1533;SDS011;760;48.822;9.304;2022-07-18T11:03:11;5.17;;;2.77;;
1533;SDS011;760;48.822;9.304;2022-07-18T11:05:45;3.10;;;2.90;;
1533;SDS011;760;48.822;9.304;2022-07-18T11:08:15;5.90;;;3.40;;
1533;SDS011;760;48.822;9.304;2022-07-18T11:13:51;2.80;;;2.60;;
1533;SDS011;760;48.822;9.304;2022-07-18T11:23:48;6.07;;;3.83;;
1533;SDS011;760;48.822;9.304;2022-07-18T11:26:22;6.70;;;2.53;;
1533;SDS011;760;48.822;9.304;2022-07-18T11:28:50;2.80;;;2.47;;
1533;SDS011;760;48.822;9.304;2022-07-18T11:31:22;3.90;;;3.07;;
1533;SDS011;760;48.822;9.304;2022-07-18T11:33:49;4.57;;;4.17;;
1533;SDS011;760;48.822;9.304;2022-07-18T11:36:16;3.30;;;3.10;;
1533;SDS011;760;48.822;9.304;2022-07-18T11:38:47;4.37;;;3.10;;
1533;SDS011;760;48.822;9.304;2022-07-18T11:41:15;4.43;;;2.90;;
1533;SDS011;760;48.822;9.304;2022-07-18T11:43:45;3.27;;;3.00;;
1533;SDS011;760;48.822;9.304;2022-07-18T11:46:12;2.27;;;2.17;;
1533;SDS011;760;48.822;9.304;2022-07-18T11:48:39;2.33;;;2.20;;
1533;SDS011;760;48.822;9.304;2022-07-18T11:51:10;2.40;;;2.20;;
1533;SDS011;760;48.822;9.304;2022-07-18T11:53:50;4.20;;;3.90;;
1533;SDS011;760;48.822;9.304;2022-07-18T11:56:17;6.00;;;2.20;;
1533;SDS011;760;48.822;9.304;2022-07-18T11:58:45;2.30;;;2.10;;
1533;SDS011;760;48.822;9.304;2022-07-18T12:01:11;2.20;;;2.10;;
1533;SDS011;760;48.822;9.304;2022-07-18T12:03:45;2.57;;;2.37;;
1533;SDS011;760;48.822;9.304;2022-07-18T12:06:21;2.37;;;2.20;;
1533;SDS011;760;48.822;9.304;2022-07-18T12:08:52;2.40;;;2.27;;
1533;SDS011;760;48.822;9.304;2022-07-18T12:13:56;2.57;;;2.40;;
1533;SDS011;760;48.822;9.304;2022-07-18T12:16:33;2.70;;;2.50;;
1533;SDS011;760;48.822;9.304;2022-07-18T12:19:08;3.20;;;3.00;;
1533;SDS011;760;48.822;9.304;2022-07-18T12:21:39;3.10;;;2.87;;
1533;SDS011;760;48.822;9.304;2022-07-18T12:24:27;2.47;;;2.37;;
1533;SDS011;760;48.822;9.304;2022-07-18T12:32:28;2.40;;;2.30;;
1533;SDS011;760;48.822;9.304;2022-07-18T12:35:02;2.27;;;2.10;;
1533;SDS011;760;48.822;9.304;2022-07-18T12:37:33;2.13;;;2.03;;
1533;SDS011;760;48.822;9.304;2022-07-18T12:40:02;2.43;;;2.23;;
1533;SDS011;760;48.822;9.304;2022-07-18T12:42:38;2.40;;;2.30;;
1533;SDS011;760;48.822;9.304;2022-07-18T12:45:06;3.33;;;2.60;;
1533;SDS011;760;48.822;9.304;2022-07-18T12:47:36;2.20;;;2.10;;
1533;SDS011;760;48.822;9.304;2022-07-18T12:50:04;2.13;;;2.03;;
1533;SDS011;760;48.822;9.304;2022-07-18T12:52:30;1.90;;;1.80;;
1533;SDS011;760;48.822;9.304;2022-07-18T12:54:56;1.97;;;1.87;;
1533;SDS011;760;48.822;9.304;2022-07-18T12:57:21;2.17;;;2.07;;
1533;SDS011;760;48.822;9.304;2022-07-18T12:59:47;2.17;;;2.07;;
1533;SDS011;760;48.822;9.304;2022-07-18T13:02:14;2.13;;;1.87;;
1533;SDS011;760;48.822;9.304;2022-07-18T13:04:40;2.50;;;2.30;;
1533;SDS011;760;48.822;9.304;2022-07-18T13:07:06;2.73;;;2.53;;
1533;SDS011;760;48.822;9.304;2022-07-18T13:09:32;2.00;;;1.90;;
1533;SDS011;760;48.822;9.304;2022-07-18T13:11:58;2.10;;;2.00;;
1533;SDS011;760;48.822;9.304;2022-07-18T13:14:25;2.63;;;2.43;;
1533;SDS011;760;48.822;9.304;2022-07-18T13:16:51;3.30;;;3.10;;
1533;SDS011;760;48.822;9.304;2022-07-18T13:19:17;2.20;;;2.07;;
1533;SDS011;760;48.822;9.304;2022-07-18T13:21:44;2.10;;;2.00;;
1533;SDS011;760;48.822;9.304;2022-07-18T13:24:10;2.40;;;2.30;;
1533;SDS011;760;48.822;9.304;2022-07-18T13:26:36;2.50;;;2.30;;
1533;SDS011;760;48.822;9.304;2022-07-18T13:29:03;3.43;;;2.50;;
1533;SDS011;760;48.822;9.304;2022-07-18T13:31:29;2.40;;;2.30;;
1533;SDS011;760;48.822;9.304;2022-07-18T13:33:55;2.53;;;2.33;;
1533;SDS011;760;48.822;9.304;2022-07-18T13:36:21;2.27;;;2.17;;
1533;SDS011;760;48.822;9.304;2022-07-18T13:38:47;2.53;;;2.33;;
1533;SDS011;760;48.822;9.304;2022-07-18T13:41:12;2.87;;;2.67;;
1533;SDS011;760;48.822;9.304;2022-07-18T13:43:38;2.50;;;2.10;;
1533;SDS011;760;48.822;9.304;2022-07-18T13:46:06;2.50;;;2.40;;
1533;SDS011;760;48.822;9.304;2022-07-18T13:48:32;2.10;;;2.00;;
1533;SDS011;760;48.822;9.304;2022-07-18T13:50:57;2.47;;;2.33;;
1533;SDS011;760;48.822;9.304;2022-07-18T13:53:23;2.30;;;2.20;;
1533;SDS011;760;48.822;9.304;2022-07-18T13:55:49;2.40;;;2.30;;
1533;SDS011;760;48.822;9.304;2022-07-18T13:58:15;2.30;;;2.20;;
1533;SDS011;760;48.822;9.304;2022-07-18T14:00:41;2.87;;;2.63;;
1533;SDS011;760;48.822;9.304;2022-07-18T14:03:06;2.30;;;2.10;;
1533;SDS011;760;48.822;9.304;2022-07-18T14:05:33;2.00;;;1.90;;
1533;SDS011;760;48.822;9.304;2022-07-18T14:07:58;2.70;;;2.50;;
1533;SDS011;760;48.822;9.304;2022-07-18T14:10:24;2.43;;;2.33;;
1533;SDS011;760;48.822;9.304;2022-07-18T14:12:50;2.50;;;2.40;;
1533;SDS011;760;48.822;9.304;2022-07-18T14:15:16;2.20;;;2.10;;
1533;SDS011;760;48.822;9.304;2022-07-18T14:17:42;2.57;;;2.43;;
1533;SDS011;760;48.822;9.304;2022-07-18T14:20:08;2.20;;;2.10;;
1533;SDS011;760;48.822;9.304;2022-07-18T14:22:37;2.30;;;2.20;;
1533;SDS011;760;48.822;9.304;2022-07-18T14:25:03;2.77;;;2.57;;
1533;SDS011;760;48.822;9.304;2022-07-18T14:27:30;2.30;;;2.20;;
1533;SDS011;760;48.822;9.304;2022-07-18T14:29:56;2.47;;;2.27;;
1533;SDS011;760;48.822;9.304;2022-07-18T14:32:22;2.63;;;2.43;;
1533;SDS011;760;48.822;9.304;2022-07-18T14:34:47;2.23;;;2.13;;
1533;SDS011;760;48.822;9.304;2022-07-18T14:37:14;2.27;;;2.17;;
1533;SDS011;760;48.822;9.304;2022-07-18T14:39:41;2.33;;;2.13;;
1533;SDS011;760;48.822;9.304;2022-07-18T14:42:07;2.40;;;2.20;;
1533;SDS011;760;48.822;9.304;2022-07-18T14:44:33;2.20;;;2.10;;
1533;SDS011;760;48.822;9.304;2022-07-18T14:46:59;2.10;;;2.00;;
1533;SDS011;760;48.822;9.304;2022-07-18T14:49:24;1.90;;;1.80;;
1533;SDS011;760;48.822;9.304;2022-07-18T14:51:50;2.10;;;2.00;;
1533;SDS011;760;48.822;9.304;2022-07-18T14:54:16;1.87;;;1.77;;
1533;SDS011;760;48.822;9.304;2022-07-18T14:56:41;2.10;;;2.00;;
1533;SDS011;760;48.822;9.304;2022-07-18T14:59:07;1.93;;;1.83;;
1533;SDS011;760;48.822;9.304;2022-07-18T15:01:32;1.80;;;1.70;;
1533;SDS011;760;48.822;9.304;2022-07-18T15:03:58;2.37;;;2.17;;
1533;SDS011;760;48.822;9.304;2022-07-18T15:06:24;2.27;;;2.17;;
1533;SDS011;760;48.822;9.304;2022-07-18T15:08:50;2.63;;;2.53;;
1533;SDS011;760;48.822;9.304;2022-07-18T15:11:16;2.00;;;1.90;;
1533;SDS011;760;48.822;9.304;2022-07-18T15:13:44;1.77;;;1.67;;
1533;SDS011;760;48.822;9.304;2022-07-18T15:16:10;2.10;;;2.00;;
1533;SDS011;760;48.822;9.304;2022-07-18T15:18:36;3.07;;;2.10;;
1533;SDS011;760;48.822;9.304;2022-07-18T15:21:02;2.10;;;2.00;;
1533;SDS011;760;48.822;9.304;2022-07-18T15:23:28;2.10;;;2.00;;
1533;SDS011;760;48.822;9.304;2022-07-18T15:25:54;2.03;;;1.93;;
1533;SDS011;760;48.822;9.304;2022-07-18T15:28:19;2.23;;;2.03;;
1533;SDS011;760;48.822;9.304;2022-07-18T15:30:47;1.73;;;1.63;;
1533;SDS011;760;48.822;9.304;2022-07-18T15:33:14;2.70;;;2.50;;
1533;SDS011;760;48.822;9.304;2022-07-18T15:35:40;2.30;;;2.20;;
1533;SDS011;760;48.822;9.304;2022-07-18T15:38:06;2.10;;;2.00;;
1533;SDS011;760;48.822;9.304;2022-07-18T15:40:32;3.60;;;2.10;;
1533;SDS011;760;48.822;9.304;2022-07-18T15:42:58;1.93;;;1.83;;
1533;SDS011;760;48.822;9.304;2022-07-18T15:45:24;2.30;;;2.20;;
1533;SDS011;760;48.822;9.304;2022-07-18T15:47:49;1.90;;;1.80;;
1533;SDS011;760;48.822;9.304;2022-07-18T15:50:15;1.70;;;1.60;;
1533;SDS011;760;48.822;9.304;2022-07-18T15:52:41;2.87;;;2.17;;
1533;SDS011;760;48.822;9.304;2022-07-18T15:55:06;2.00;;;1.90;;
1533;SDS011;760;48.822;9.304;2022-07-18T15:57:32;2.60;;;2.50;;
1533;SDS011;760;48.822;9.304;2022-07-18T15:59:58;2.03;;;1.93;;
1533;SDS011;760;48.822;9.304;2022-07-18T16:02:24;2.67;;;2.37;;
1533;SDS011;760;48.822;9.304;2022-07-18T16:04:50;3.17;;;2.97;;
1533;SDS011;760;48.822;9.304;2022-07-18T16:07:15;2.70;;;2.50;;
1533;SDS011;760;48.822;9.304;2022-07-18T16:09:41;2.90;;;2.70;;
1533;SDS011;760;48.822;9.304;2022-07-18T16:12:07;3.57;;;3.27;;
1533;SDS011;760;48.822;9.304;2022-07-18T16:14:34;2.53;;;2.43;;
1533;SDS011;760;48.822;9.304;2022-07-18T16:17:00;2.50;;;2.40;;
1533;SDS011;760;48.822;9.304;2022-07-18T16:19:25;4.43;;;2.17;;
1533;SDS011;760;48.822;9.304;2022-07-18T16:21:51;2.47;;;2.37;;
1533;SDS011;760;48.822;9.304;2022-07-18T16:24:17;2.13;;;2.03;;
1533;SDS011;760;48.822;9.304;2022-07-18T16:26:42;3.10;;;2.90;;
1533;SDS011;760;48.822;9.304;2022-07-18T16:29:08;1.70;;;1.60;;
1533;SDS011;760;48.822;9.304;2022-07-18T16:31:34;3.67;;;2.27;;
1533;SDS011;760;48.822;9.304;2022-07-18T16:34:00;2.33;;;2.23;;
1533;SDS011;760;48.822;9.304;2022-07-18T16:36:25;2.50;;;2.30;;
1533;SDS011;760;48.822;9.304;2022-07-18T16:38:51;2.60;;;2.40;;
1533;SDS011;760;48.822;9.304;2022-07-18T16:41:17;2.27;;;2.17;;
1533;SDS011;760;48.822;9.304;2022-07-18T16:43:43;2.27;;;2.17;;
1533;SDS011;760;48.822;9.304;2022-07-18T16:46:09;2.47;;;2.30;;
1533;SDS011;760;48.822;9.304;2022-07-18T16:48:36;2.50;;;2.30;;
1533;SDS011;760;48.822;9.304;2022-07-18T16:51:03;2.53;;;2.37;;
1533;SDS011;760;48.822;9.304;2022-07-18T16:53:31;2.40;;;2.30;;
1533;SDS011;760;48.822;9.304;2022-07-18T16:56:00;2.53;;;2.33;;
1533;SDS011;760;48.822;9.304;2022-07-18T16:58:27;5.80;;;2.50;;
1533;SDS011;760;48.822;9.304;2022-07-18T17:00:53;2.43;;;2.23;;
1533;SDS011;760;48.822;9.304;2022-07-18T17:03:19;2.53;;;2.37;;
1533;SDS011;760;48.822;9.304;2022-07-18T17:05:45;3.13;;;2.93;;
1533;SDS011;760;48.822;9.304;2022-07-18T17:08:11;4.03;;;3.77;;
1533;SDS011;760;48.822;9.304;2022-07-18T17:10:36;2.47;;;2.27;;
1533;SDS011;760;48.822;9.304;2022-07-18T17:13:03;2.27;;;2.17;;
1533;SDS011;760;48.822;9.304;2022-07-18T17:15:30;2.70;;;2.50;;
1533;SDS011;760;48.822;9.304;2022-07-18T17:17:56;2.77;;;2.57;;
1533;SDS011;760;48.822;9.304;2022-07-18T17:20:23;3.93;;;2.73;;
1533;SDS011;760;48.822;9.304;2022-07-18T17:22:49;2.67;;;2.50;;
1533;SDS011;760;48.822;9.304;2022-07-18T17:25:20;2.67;;;2.47;;
1533;SDS011;760;48.822;9.304;2022-07-18T17:27:46;2.23;;;2.10;;
1533;SDS011;760;48.822;9.304;2022-07-18T17:30:12;2.90;;;2.70;;
1533;SDS011;760;48.822;9.304;2022-07-18T17:32:38;2.93;;;2.73;;
1533;SDS011;760;48.822;9.304;2022-07-18T17:35:05;2.80;;;2.60;;
1533;SDS011;760;48.822;9.304;2022-07-18T17:37:32;2.80;;;2.60;;
1533;SDS011;760;48.822;9.304;2022-07-18T17:39:59;2.23;;;2.13;;
1533;SDS011;760;48.822;9.304;2022-07-18T17:42:25;2.97;;;2.70;;
1533;SDS011;760;48.822;9.304;2022-07-18T17:44:50;3.63;;;3.43;;
1533;SDS011;760;48.822;9.304;2022-07-18T17:47:16;3.40;;;3.20;;
1533;SDS011;760;48.822;9.304;2022-07-18T17:49:42;2.67;;;2.53;;
1533;SDS011;760;48.822;9.304;2022-07-18T17:52:08;3.37;;;3.17;;
1533;SDS011;760;48.822;9.304;2022-07-18T17:54:34;2.93;;;2.73;;
1533;SDS011;760;48.822;9.304;2022-07-18T17:57:00;3.47;;;3.27;;
1533;SDS011;760;48.822;9.304;2022-07-18T17:59:27;5.17;;;2.83;;
1533;SDS011;760;48.822;9.304;2022-07-18T18:01:53;2.93;;;2.73;;
1533;SDS011;760;48.822;9.304;2022-07-18T18:04:19;3.10;;;2.73;;
1533;SDS011;760;48.822;9.304;2022-07-18T18:06:44;2.43;;;2.33;;
1533;SDS011;760;48.822;9.304;2022-07-18T18:09:11;2.30;;;2.20;;
1533;SDS011;760;48.822;9.304;2022-07-18T18:11:37;2.37;;;2.27;;
1533;SDS011;760;48.822;9.304;2022-07-18T18:14:03;2.37;;;2.10;;
1533;SDS011;760;48.822;9.304;2022-07-18T18:16:28;4.80;;;2.20;;
1533;SDS011;760;48.822;9.304;2022-07-18T18:18:56;2.60;;;2.50;;
1533;SDS011;760;48.822;9.304;2022-07-18T18:21:22;3.00;;;2.80;;
1533;SDS011;760;48.822;9.304;2022-07-18T18:23:47;4.73;;;2.63;;
1533;SDS011;760;48.822;9.304;2022-07-18T18:26:13;3.20;;;2.73;;
1533;SDS011;760;48.822;9.304;2022-07-18T18:28:39;2.53;;;2.43;;
1533;SDS011;760;48.822;9.304;2022-07-18T18:31:05;3.03;;;2.83;;
1533;SDS011;760;48.822;9.304;2022-07-18T18:33:30;2.70;;;2.30;;
1533;SDS011;760;48.822;9.304;2022-07-18T18:35:56;2.40;;;2.30;;
1533;SDS011;760;48.822;9.304;2022-07-18T18:38:22;3.07;;;2.57;;
1533;SDS011;760;48.822;9.304;2022-07-18T18:40:48;3.23;;;3.00;;
1533;SDS011;760;48.822;9.304;2022-07-18T18:43:13;3.00;;;2.80;;
1533;SDS011;760;48.822;9.304;2022-07-18T18:45:39;2.63;;;2.50;;
1533;SDS011;760;48.822;9.304;2022-07-18T18:48:05;3.80;;;3.00;;
1533;SDS011;760;48.822;9.304;2022-07-18T18:50:31;3.00;;;2.83;;
1533;SDS011;760;48.822;9.304;2022-07-18T18:52:57;3.20;;;3.00;;
1533;SDS011;760;48.822;9.304;2022-07-18T18:55:22;3.40;;;3.20;;
1533;SDS011;760;48.822;9.304;2022-07-18T18:57:48;3.43;;;3.00;;
1533;SDS011;760;48.822;9.304;2022-07-18T19:00:14;3.20;;;3.00;;
1533;SDS011;760;48.822;9.304;2022-07-18T19:02:46;3.67;;;3.37;;
1533;SDS011;760;48.822;9.304;2022-07-18T19:05:16;4.83;;;3.50;;
1533;SDS011;760;48.822;9.304;2022-07-18T19:07:43;4.17;;;3.87;;
1533;SDS011;760;48.822;9.304;2022-07-18T19:10:09;3.90;;;3.57;;
1533;SDS011;760;48.822;9.304;2022-07-18T19:12:35;4.23;;;3.93;;
1533;SDS011;760;48.822;9.304;2022-07-18T19:15:00;3.23;;;2.90;;
1533;SDS011;760;48.822;9.304;2022-07-18T19:17:27;4.40;;;3.20;;
1533;SDS011;760;48.822;9.304;2022-07-18T19:19:53;2.87;;;2.70;;
1533;SDS011;760;48.822;9.304;2022-07-18T19:22:19;4.00;;;3.10;;
1533;SDS011;760;48.822;9.304;2022-07-18T19:24:45;3.60;;;3.40;;
1533;SDS011;760;48.822;9.304;2022-07-18T19:27:11;4.23;;;3.90;;
1533;SDS011;760;48.822;9.304;2022-07-18T19:29:37;3.60;;;3.33;;
1533;SDS011;760;48.822;9.304;2022-07-18T19:32:03;3.80;;;3.60;;
1533;SDS011;760;48.822;9.304;2022-07-18T19:34:29;3.37;;;3.17;;
1533;SDS011;760;48.822;9.304;2022-07-18T19:36:55;3.20;;;2.87;;
1533;SDS011;760;48.822;9.304;2022-07-18T19:39:21;3.03;;;2.83;;
1533;SDS011;760;48.822;9.304;2022-07-18T19:41:47;3.00;;;2.80;;
1533;SDS011;760;48.822;9.304;2022-07-18T19:44:13;3.57;;;3.27;;
1533;SDS011;760;48.822;9.304;2022-07-18T19:46:39;3.97;;;3.67;;
1533;SDS011;760;48.822;9.304;2022-07-18T19:49:05;4.40;;;4.00;;
1533;SDS011;760;48.822;9.304;2022-07-18T19:51:31;5.13;;;4.63;;
1533;SDS011;760;48.822;9.304;2022-07-18T19:53:57;5.30;;;4.80;;
1533;SDS011;760;48.822;9.304;2022-07-18T19:56:23;6.87;;;6.00;;
1533;SDS011;760;48.822;9.304;2022-07-18T19:58:49;5.50;;;5.00;;
1533;SDS011;760;48.822;9.304;2022-07-18T20:01:14;6.83;;;5.50;;
1533;SDS011;760;48.822;9.304;2022-07-18T20:03:40;7.80;;;6.90;;
1533;SDS011;760;48.822;9.304;2022-07-18T20:06:06;6.03;;;5.47;;
1533;SDS011;760;48.822;9.304;2022-07-18T20:08:33;6.40;;;5.80;;
1533;SDS011;760;48.822;9.304;2022-07-18T20:10:58;7.40;;;6.80;;
1533;SDS011;760;48.822;9.304;2022-07-18T20:13:24;7.53;;;6.50;;
1533;SDS011;760;48.822;9.304;2022-07-18T20:15:50;6.80;;;6.03;;
1533;SDS011;760;48.822;9.304;2022-07-18T20:18:16;5.63;;;5.23;;
1533;SDS011;760;48.822;9.304;2022-07-18T20:20:42;6.27;;;5.77;;
1533;SDS011;760;48.822;9.304;2022-07-18T20:23:08;5.00;;;4.50;;
1533;SDS011;760;48.822;9.304;2022-07-18T20:25:33;4.20;;;3.90;;
1533;SDS011;760;48.822;9.304;2022-07-18T20:27:59;3.50;;;3.30;;
1533;SDS011;760;48.822;9.304;2022-07-18T20:30:27;3.80;;;3.50;;